Terminal Aerodrome Forecast
Issued by NWS Caribou, ME

Home | Current Version | Previous Version | Text Only | Print | Product List | Glossary On
Versions: 1 2 3 4 5 6 7 8 9 10 11 12 13 14 15 16
352
FTUS41 KCAR 030548 AAC
TAFCAR
TAF AMD
KCAR 030548Z 0306/0406 05004KT P6SM -RA SCT025 OVC045
      TEMPO 0306/0307 OVC025
     FM030700 03004KT 5SM -RA OVC025
     FM031300 03004KT P6SM OVC025
     FM031700 VRB03KT P6SM BKN035
     FM040400 00000KT P6SM SCT015 BKN025=

USA.gov is the U.S. government's official web portal to all federal, state and local government web resources and services.